Pioche, Nevada Weather observations

Data are for observation ending at time listed.
 Day   Time    Ave.   Ave.  Ave.  Vector   Max.   Stn.    Total    Solar   Ave.  
  of    of     Air    Rel.  Wind   Wind    Wind   Baro.  Precip.   Rad.    Soil  
Year   Day     Temp.  Hum.  Speed  Dir.    Gust   Pres.                    Temp. 
2017   (PST)    F      %     mph   deg.    mph     mb.     in.     W/m2     F   
------------------------------------------------------------------------------
  16    9:20   25.9    71    8.1   295     14.5   822.3    0.00     421    33.3
  16    9:30   26.0    70    9.8   298     16.1   822.4    0.00     446    33.4
  16    9:40   26.6    70    8.8   293     14.2   822.6    0.00     469    33.4
  16    9:50   27.4    67    7.6   290     13.0   822.6    0.00     492    33.4
  16   10:00   27.6    66    8.2   289     14.2   822.6    0.00     511    33.4
  16   10:10   27.8    64   10.3   293     14.8   822.6    0.00     531    33.4
  16   10:20   28.3    63   10.0   292     14.8   822.6    0.00     547    33.3
  16   10:30   28.9    62    9.2   296     14.1   822.5    0.00     562    33.4
  16   10:40   29.8    59    8.4   302     14.1   822.4    0.00     577    33.4
  16   10:50   30.4    57    8.0   293     11.8   822.3    0.00     590    33.4
  16   11:00   30.8    54    7.1   292     11.2   822.2    0.00     600    33.4
  16   11:10   31.1    53    7.2   289     12.2   822.1    0.00     609    33.4
  16   11:20   31.7    54    6.5   297      9.3   821.9    0.00     614    33.4
  16   11:30   31.8    53    7.2   303     12.6   821.9    0.00     618    33.4
  16   11:40   31.8    54    8.6   305     15.4   821.8    0.00     619    33.4
  16   11:50   31.7    55    8.9   303     13.3   821.6    0.00     619    33.4
  16   12:00   32.0    55    8.3   307     12.9   821.5    0.00     619    33.4
  16   12:10   32.6    55    7.6   301     11.9   821.3    0.00     616    33.4
  16   12:20   32.7    55    7.4   304     11.3   821.2    0.00     614    33.4
  16   12:30   33.1    55    8.3   305     12.6   821.1    0.00     610    33.4
  16   12:40   32.9    55    9.8   304     15.0   820.9    0.00     604    33.3
  16   12:50   32.9    55    9.2   302     14.5   820.8    0.00     594    33.4
  16   13:00   32.9    55   10.4   300     16.6   820.7    0.00     583    33.4
  16   13:10   33.1    54   10.2   298     14.8   820.6    0.00     570    33.4
  16   13:20   33.3    54    9.7   298     14.3   820.6    0.00     555    33.4
  16   13:30   33.7    54    9.7   300     15.2   820.5    0.00     539    33.4
  16   13:40   33.5    55    8.8   295     12.9   820.5    0.00     520    33.3
  16   13:50   33.5    55    9.0   302     14.0   820.5    0.00     502    33.3
  16   14:00   33.3    56    8.8   293     13.3   820.6    0.00     481    33.4
  16   14:10   33.4    56    9.0   296     13.6   820.5    0.00     458    33.4
  16   14:20   32.8    58    9.1   295     14.5   820.5    0.00     434    33.4
  16   14:30   32.7    56    8.7   291     13.7   820.5    0.00     408    33.3
  16   14:40   32.7    55    8.5   288     13.2   820.5    0.00     381    33.3
  16   14:50   32.7    56    6.9   284     12.6   820.6    0.00     353    33.3
  16   15:00   33.0    54    6.7   283      9.9   820.7    0.00     324    33.3
  16   15:10   33.0    55    6.9   296     11.0   820.8    0.00     295    33.4
  16   15:20   32.9    56    7.2   304     11.4   820.8    0.00     265    33.3
  16   15:30   32.5    56    7.6   302     12.1   820.8    0.00     234    33.3
  16   15:40   32.2    57    8.9   298     13.5   820.8    0.00     204    33.3
  16   15:50   31.8    57    8.7   291     13.9   820.8    0.00     174    33.3
  16   16:00   31.1    59    8.7   293     13.7   820.9    0.00     143    33.3
  16   16:10   30.3    60    9.8   294     14.2   820.9    0.00      22    33.4
  16   16:20   29.4    62   10.5   296     15.5   821.0    0.00      12    33.3
  16   16:30   29.1    61   10.1   291     13.7   821.1    0.00      10    33.3
  16   16:40   28.5    62   10.8   295     15.7   821.1    0.00       8    33.3
  16   16:50   28.0    61   10.6   289     15.2   821.3    0.00       5    33.2
  16   17:00   28.3    58    9.4   282     15.0   821.4    0.00       0    33.2
  16   17:10   27.9    59    7.9   277     12.6   821.5    0.00       0    33.2
  16   17:20   27.5    58    7.2   268     11.3   821.5    0.00       0    33.2
  16   17:30   27.4    55    8.2   273     13.8   821.5    0.00       0    33.2
  16   17:40   27.3    54    7.3   272     13.7   821.5    0.00       0    33.2
  16   17:50   27.3    53    7.6   274     11.5   821.6    0.00       0    33.2
  16   18:00   26.9    53    8.1   279     12.3   821.6    0.00       0    33.1
  16   18:10   26.4    55    7.5   280     12.2   821.7    0.00       0    33.2
  16   18:20   26.3    56    6.7   286      9.9   821.8    0.00       0    33.1
  16   18:30   26.0    57    7.9   286     11.0   821.8    0.00       0    33.2
  16   18:40   26.3    56    5.0   270     10.7   821.9    0.00       0    33.1
  16   18:50   26.0    57    1.9   257      7.0   822.0    0.00       0    33.1
  16   19:00   26.1    57    0.7   141      2.3   822.2    0.00       0    33.2
  16   19:10   25.1    59    1.7   261      4.5   822.2    0.00       0    33.2
  16   19:20   23.3    63    1.6   206      2.9   822.2    0.00       0    33.2
  16   19:30   22.7    65    2.3   253      5.4   822.2    0.00       0    33.2
  16   19:40   23.8    61    4.3   274      7.2   822.2    0.00       0    33.2
  16   19:50   24.0    59    5.4   281      9.1   822.2    0.00       0    33.1
  16   20:00   23.8    59    5.3   285      8.9   822.2    0.00       0    33.1
  16   20:10   24.0    59    6.7   286     11.8   822.1    0.00       0    33.1
  16   20:20   24.4    59    7.3   287     10.4   822.2    0.00       0    33.1
  16   20:30   24.3    60    7.0   292     11.2   822.3    0.00       0    33.1
  16   20:40   24.0    60    8.3   286     14.5   822.3    0.00       0    33.1
  16   20:50   23.9    60    5.5   276      9.6   822.3    0.00       0    33.1
  16   21:00   24.1    60    4.5   272      8.6   822.4    0.00       0    33.1
  16   21:10   24.2    60    3.2   287      5.8   822.4    0.00       0    33.1
  16   21:20   23.6    61    3.3   306      6.2   822.3    0.00       0    33.2
  16   21:30   22.7    62    3.8   302      6.2   822.3    0.00       0    33.1
  16   21:40   22.6    62    4.5   290      8.0   822.4    0.00       0    33.1
  16   21:50   22.8    62    4.5   284      7.9   822.4    0.00       0    33.1
  16   22:00   22.8    62    4.2   274      8.3   822.4    0.00       0    33.1
  16   22:10   23.0    61    2.4   267      5.5   822.5    0.00       0    33.1
  16   22:20   23.3    60    3.6   267      6.9   822.4    0.00       0    33.1
  16   22:30   23.5    59    5.1   279      9.5   822.4    0.00       0    33.1
  16   22:40   23.5    58    4.6   270      8.1   822.4    0.00       0    33.1
  16   22:50   23.5    58    2.9   270      7.0   822.3    0.00       0    33.1
  16   23:00   23.4    58    3.1   274      5.3   822.3    0.00       0    33.1
  16   23:10   22.9    60    3.0   279      5.8   822.3    0.00       0    33.1
  16   23:20   22.7    60    3.4   276      6.3   822.1    0.00       0    33.1
  16   23:30   22.5    60    2.9   273      5.9   822.0    0.00       0    33.1
  16   23:40   22.7    60    4.2   273      6.4   821.9    0.00       0    33.1
  16   23:50   22.4    60    3.2   274      5.6   821.9    0.00       0    33.0
  17    0:00   22.2    60    3.2   277      7.5   821.8    0.00       0    33.1
  17    0:10   21.9    61    3.0   265      6.1   821.9    0.00       0    33.1
  17    0:20   21.9    61    5.3   286      8.6   822.0    0.00       0    33.0
  17    0:30   21.3    62    3.1   267      6.1   822.2    0.00       0    33.0
  17    0:40   21.1    63    4.1   269      9.3   822.2    0.00       0    33.0
  17    0:50   21.3    63    5.7   275      8.6   822.2    0.00       0    33.0
  17    1:00   21.1    64    5.9   276     10.3   822.2    0.00       0    33.0
  17    1:10   21.1    65    4.7   276      7.3   822.2    0.00       0    33.0
  17    1:20   21.3    64    5.9   272      9.9   822.3    0.00       0    33.0
  17    1:30   21.4    64    6.9   277     13.7   822.2    0.00       0    33.0
  17    1:40   21.1    65    6.8   280     10.4   822.3    0.00       0    33.0
  17    1:50   20.9    66    6.0   280      9.8   822.4    0.00       0    33.0
  17    2:00   20.9    66    5.5   274      9.9   822.4    0.00       0    33.0
  17    2:10   21.0    66    5.8   270     11.0   822.4    0.00       0    33.0
  17    2:20   20.9    66    5.5   271     10.7   822.3    0.00       0    33.0
  17    2:30   20.9    65    5.1   274      8.3   822.3    0.00       0    33.0
  17    2:40   20.8    65    4.3   277      7.1   822.3    0.00       0    33.0
  17    2:50   20.2    66    3.9   287      6.1   822.2    0.00       0    33.0
  17    3:00   20.0    67    4.5   276      8.7   822.0    0.00       0    33.0
  17    3:10   20.0    67    4.9   271      7.5   821.9    0.00       0    33.0
  17    3:20   20.3    66    4.0   270      7.5   821.9    0.00       0    33.0
  17    3:30   20.4    66    3.5   266      6.6   821.8    0.00       0    33.0
  17    3:40   20.5    65    4.2   275      7.7   821.6    0.00       0    32.9
  17    3:50   20.5    65    4.3   271      8.2   821.5    0.00       0    33.0
  17    4:00   20.5    64    6.1   278      9.4   821.5    0.00       0    32.9
  17    4:10   19.8    66    6.0   282     11.1   821.5    0.00       0    32.9
  17    4:20   19.2    67    5.9   275      9.0   821.4    0.00       0    32.9
  17    4:30   19.0    67    5.4   278      8.7   821.3    0.00       0    32.9
  17    4:40   19.7    64    6.9   278     11.7   821.3    0.00       0    32.9
  17    4:50   20.1    63    5.8   273      9.5   821.3    0.00       0    32.9
  17    5:00   20.1    63    5.6   280     10.4   821.3    0.00       0    32.9
  17    5:10   18.4    67    7.6   291     12.7   821.3    0.00       0    32.9
  17    5:20   18.5    68    8.3   276     12.9   821.3    0.00       0    32.9
  17    5:30   18.7    70    8.6   277     13.5   821.3    0.00       0    32.9
  17    5:40   18.8    69    9.3   281     13.6   821.3    0.00       0    32.9
  17    5:50   18.7    70    8.4   276     12.9   821.3    0.00       0    32.9
  17    6:00   18.3    72    7.8   278     12.6   821.4    0.00       0    32.8
  17    6:10   18.4    72    7.3   277     13.0   821.5    0.00       0    32.8
  17    6:20   18.4    71    7.3   278     11.0   821.5    0.00       0    32.8
  17    6:30   18.5    70    7.1   282     11.4   821.4    0.00       0    32.8
  17    6:40   18.9    68    7.8   276     13.4   821.4    0.00       0    32.8
  17    6:50   19.1    68    7.5   273     12.6   821.5    0.00       1    32.8
  17    7:00   19.8    66    6.0   268     10.5   821.5    0.00       7    32.8
  17    7:10   20.8    64    6.4   260     11.1   821.7    0.00      23    32.8
  17    7:20   20.8    64    8.5   280     13.0   821.8    0.00      52    32.8
  17    7:30   21.0    63    7.6   282     12.2   821.8    0.00      86    32.8
  17    7:40   21.7    62    8.8   274     14.8   821.9    0.00     124    32.9
  17    7:50   21.8    61    8.9   272     16.4   822.0    0.00     159    32.9
  17    8:00   22.0    61    9.0   272     15.3   822.1    0.00     191    32.9
  17    8:10   22.4    60    8.7   270     16.7   822.2    0.00     222    32.9
  17    8:20   22.9    59    8.4   271     13.7   822.4    0.00     254    32.9
  17    8:30   23.2    58    9.0   275     15.0   822.4    0.00     286    32.9
  17    8:40   23.8    56    8.0   276     13.7   822.5    0.00     315    32.9
  17    8:50   24.5    55    7.5   283     11.4   822.7    0.00     345    32.9
  17    9:00   24.4    57    8.0   292     11.0   822.8    0.00     373    32.9
  17    9:10   24.0    60    5.9   301      8.6   823.0    0.00     400    32.9

Return to Pioche, Nevada graphs page.


Western Regional Climate Center,wrcc@dri.edu